createdAt,value
2022-10-01T00:01:28.009Z,15.77
2022-10-01T00:03:56.166Z,16.22
2022-10-01T00:06:25.022Z,16.22
2022-10-01T00:08:52.816Z,16.38
2022-10-01T00:11:24.334Z,16.57
2022-10-01T00:13:53.898Z,16.21
2022-10-01T00:16:25.494Z,16.02
2022-10-01T00:18:54.215Z,15.78
2022-10-01T00:21:24.973Z,15.82
2022-10-01T00:24:05.773Z,16.22
2022-10-01T00:26:36.077Z,16.22
2022-10-01T00:29:06.273Z,16.24
2022-10-01T00:31:34.849Z,16.03
2022-10-01T00:34:03.541Z,15.92
2022-10-01T00:36:32.613Z,16.39
2022-10-01T00:39:01.089Z,16.38
2022-10-01T00:41:32.806Z,16.00
2022-10-01T00:44:22.298Z,15.99
2022-10-01T00:46:50.653Z,15.88
2022-10-01T00:49:21.433Z,16.05
2022-10-01T00:52:03.262Z,16.33
2022-10-01T00:54:53.393Z,15.97
2022-10-01T00:57:23.333Z,15.77
2022-10-01T00:59:52.504Z,16.21
2022-10-01T01:02:20.629Z,15.96
2022-10-01T01:04:48.561Z,16.41
2022-10-01T01:07:16.911Z,15.89
2022-10-01T01:09:48.842Z,15.86
2022-10-01T01:12:22.733Z,15.87
2022-10-01T01:15:07.574Z,15.79
2022-10-01T01:18:01.065Z,15.84
2022-10-01T01:20:42.994Z,15.86
2022-10-01T01:23:17.316Z,16.30
2022-10-01T01:25:54.111Z,16.04
2022-10-01T01:28:31.848Z,16.00
2022-10-01T01:31:08.438Z,16.03
2022-10-01T01:33:38.176Z,16.51
2022-10-01T01:36:09.513Z,16.75
2022-10-01T01:38:43.524Z,16.80
2022-10-01T01:41:12.034Z,16.09
2022-10-01T01:43:44.702Z,15.86
2022-10-01T01:46:13.829Z,16.19
2022-10-01T01:48:42.332Z,16.49
2022-10-01T01:51:19.072Z,15.93
2022-10-01T01:53:47.202Z,15.77
2022-10-01T01:56:15.061Z,15.60
2022-10-01T01:58:43.531Z,15.97
2022-10-01T02:01:51.341Z,15.82
2022-10-01T02:04:23.783Z,16.01
2022-10-01T02:07:03.922Z,15.95
2022-10-01T02:10:17.195Z,15.85
2022-10-01T02:13:01.715Z,16.19
2022-10-01T02:15:39.077Z,15.80
2022-10-01T02:18:19.331Z,15.73
2022-10-01T02:20:59.221Z,15.90
2022-10-01T02:23:31.084Z,15.87
2022-10-01T02:26:03.802Z,15.77
2022-10-01T02:28:33.132Z,15.87
2022-10-01T02:31:02.367Z,15.89
2022-10-01T02:33:32.331Z,16.04
2022-10-01T02:36:02.292Z,15.86
2022-10-01T02:38:31.361Z,16.01
2022-10-01T02:41:01.259Z,16.07
2022-10-01T02:43:42.778Z,15.90
2022-10-01T02:46:28.594Z,15.85
2022-10-01T02:48:57.384Z,16.02
2022-10-01T02:51:34.301Z,15.72
2022-10-01T02:54:14.824Z,16.04
2022-10-01T02:57:01.372Z,15.84
2022-10-01T02:59:29.185Z,16.32
2022-10-01T03:01:57.618Z,16.04
2022-10-01T03:04:25.572Z,15.87
2022-10-01T03:06:53.462Z,15.84
2022-10-01T03:09:21.563Z,16.41
2022-10-01T03:11:49.455Z,16.09
2022-10-01T03:14:17.292Z,16.44
2022-10-01T03:16:45.452Z,16.25
2022-10-01T03:19:13.302Z,16.40
2022-10-01T03:21:41.152Z,15.87
2022-10-01T03:24:09.669Z,15.98
2022-10-01T03:26:37.703Z,16.13
2022-10-01T03:29:06.481Z,16.20
2022-10-01T03:31:34.930Z,16.10
2022-10-01T03:34:02.841Z,16.16
2022-10-01T03:36:30.631Z,16.04
2022-10-01T03:38:58.874Z,16.64
2022-10-01T03:41:26.770Z,16.23
2022-10-01T03:43:59.665Z,16.62
2022-10-01T03:46:28.846Z,16.40
2022-10-01T03:49:01.122Z,16.27
2022-10-01T03:51:29.692Z,16.48
2022-10-01T03:53:58.386Z,16.26
2022-10-01T03:56:26.593Z,16.07
2022-10-01T03:58:54.761Z,16.20
2022-10-01T04:01:22.663Z,16.44
2022-10-01T04:03:50.920Z,16.23
2022-10-01T04:06:19.141Z,16.45
2022-10-01T04:08:46.988Z,16.31
2022-10-01T04:11:15.184Z,16.14
2022-10-01T04:13:42.934Z,16.22
2022-10-01T04:16:11.259Z,16.16
2022-10-01T04:18:39.562Z,16.41
2022-10-01T04:21:07.433Z,16.26
2022-10-01T04:23:35.482Z,16.46
2022-10-01T04:26:03.957Z,16.30
2022-10-01T04:28:32.038Z,16.21
2022-10-01T04:31:18.950Z,16.39
2022-10-01T04:33:47.081Z,16.28
2022-10-01T04:36:14.942Z,16.35
2022-10-01T04:38:43.123Z,16.48
2022-10-01T04:41:11.303Z,16.11
2022-10-01T04:43:39.054Z,15.96
2022-10-01T04:46:06.916Z,16.49
2022-10-01T04:48:35.083Z,16.50
2022-10-01T04:51:02.982Z,16.49
2022-10-01T04:53:30.824Z,16.51
2022-10-01T04:55:58.952Z,16.35
2022-10-01T04:58:30.743Z,16.25
2022-10-01T05:01:02.481Z,16.22
2022-10-01T05:03:32.304Z,16.22
2022-10-01T05:06:02.138Z,16.59
2022-10-01T05:08:30.282Z,16.20
2022-10-01T05:11:00.582Z,16.82
2022-10-01T05:13:30.557Z,16.41
2022-10-01T05:15:59.246Z,15.81
2022-10-01T05:18:27.245Z,16.38
2022-10-01T05:20:55.415Z,16.12
2022-10-01T05:23:23.194Z,15.70
2022-10-01T05:25:51.128Z,16.08
2022-10-01T05:28:22.428Z,16.48
2022-10-01T05:30:51.369Z,16.43
2022-10-01T05:33:19.652Z,16.29
2022-10-01T05:35:48.132Z,16.35
2022-10-01T05:38:15.895Z,16.49
2022-10-01T05:40:46.183Z,16.32
2022-10-01T05:43:14.221Z,16.38
2022-10-01T05:45:42.147Z,16.52
2022-10-01T05:48:10.463Z,16.21
2022-10-01T05:50:40.601Z,16.54
2022-10-01T05:53:11.024Z,16.32
2022-10-01T05:55:39.673Z,16.45
2022-10-01T05:58:10.678Z,16.65
2022-10-01T06:00:39.817Z,16.41
2022-10-01T06:03:08.952Z,16.28
2022-10-01T06:05:36.974Z,16.26
2022-10-01T06:08:05.842Z,16.47
2022-10-01T06:10:34.093Z,16.53
2022-10-01T06:13:02.467Z,16.56
2022-10-01T06:15:30.543Z,16.85
2022-10-01T06:18:02.794Z,16.39
2022-10-01T06:20:30.683Z,16.78
2022-10-01T06:22:59.044Z,16.71
2022-10-01T06:25:30.875Z,16.47
2022-10-01T06:28:00.130Z,16.66
2022-10-01T06:30:30.685Z,16.71
2022-10-01T06:33:09.813Z,16.65
2022-10-01T06:35:43.882Z,16.45
2022-10-01T06:38:11.982Z,16.73
2022-10-01T06:40:40.691Z,16.57
2022-10-01T06:43:08.882Z,16.71
2022-10-01T06:45:39.171Z,17.34
2022-10-01T06:48:07.743Z,16.76
2022-10-01T06:50:35.659Z,17.20
2022-10-01T06:53:03.431Z,17.43
2022-10-01T06:55:33.782Z,16.75
2022-10-01T06:58:04.551Z,16.60
2022-10-01T07:00:34.514Z,16.97
2022-10-01T07:03:06.723Z,17.37
2022-10-01T07:05:34.852Z,17.33
2022-10-01T07:08:02.733Z,17.19
2022-10-01T07:10:32.314Z,17.15
2022-10-01T07:13:11.445Z,17.28
2022-10-01T07:15:39.931Z,17.08
2022-10-01T07:18:11.713Z,17.35
2022-10-01T07:20:40.719Z,17.09
2022-10-01T07:23:15.119Z,17.15
2022-10-01T07:25:43.999Z,17.18
2022-10-01T07:28:18.647Z,17.12
2022-10-01T07:30:56.660Z,17.37
2022-10-01T07:33:24.774Z,17.43
2022-10-01T07:35:52.639Z,17.57
2022-10-01T07:38:20.605Z,17.46
2022-10-01T07:40:52.971Z,17.60
2022-10-01T07:43:21.541Z,17.67
2022-10-01T07:45:58.359Z,17.42
2022-10-01T07:48:27.706Z,16.97
2022-10-01T07:50:56.714Z,17.59
2022-10-01T07:53:25.659Z,17.41
2022-10-01T07:55:53.943Z,17.32
2022-10-01T07:58:24.426Z,17.04
2022-10-01T08:00:58.687Z,17.21
2022-10-01T08:03:27.095Z,17.31
2022-10-01T08:05:55.116Z,17.43
2022-10-01T08:08:23.214Z,17.59
2022-10-01T08:10:51.414Z,17.53
2022-10-01T08:13:19.315Z,17.72
2022-10-01T08:15:50.721Z,17.54
2022-10-01T08:18:19.582Z,17.71
2022-10-01T08:20:47.853Z,17.22
2022-10-01T08:23:16.883Z,17.14
2022-10-01T08:25:45.983Z,17.52
2022-10-01T08:28:14.480Z,17.41
2022-10-01T08:30:42.913Z,17.59
2022-10-01T08:33:14.794Z,17.79
2022-10-01T08:35:43.888Z,18.26
2022-10-01T08:38:12.984Z,17.76
2022-10-01T08:40:48.804Z,17.68
2022-10-01T08:43:20.145Z,17.94
2022-10-01T08:45:51.786Z,17.83
2022-10-01T08:48:48.533Z,17.87
2022-10-01T08:51:35.632Z,17.87
2022-10-01T08:54:10.853Z,17.97
2022-10-01T08:56:41.874Z,17.90
2022-10-01T08:59:25.329Z,17.70
2022-10-01T09:01:56.867Z,17.90
2022-10-01T09:04:26.562Z,18.23
2022-10-01T09:07:02.973Z,18.25
2022-10-01T09:09:56.437Z,18.55
2022-10-01T09:12:40.323Z,18.67
2022-10-01T09:15:15.357Z,18.64
2022-10-01T09:18:02.177Z,18.70
2022-10-01T09:20:39.702Z,18.85
2022-10-01T09:23:20.943Z,19.40
2022-10-01T09:25:52.792Z,19.55
2022-10-01T09:28:26.947Z,19.66
2022-10-01T09:31:04.273Z,19.95
2022-10-01T09:33:35.955Z,19.88
2022-10-01T09:36:26.645Z,20.29
2022-10-01T09:39:17.694Z,20.24
2022-10-01T09:41:46.453Z,20.60
2022-10-01T09:44:28.145Z,20.35
2022-10-01T09:46:56.353Z,19.98
2022-10-01T09:49:34.364Z,19.14
2022-10-01T09:52:09.003Z,19.88
2022-10-01T09:54:45.097Z,20.09
2022-10-01T09:57:16.612Z,20.21
2022-10-01T09:59:49.454Z,19.91
2022-10-01T10:02:26.171Z,20.10
2022-10-01T10:05:05.522Z,19.64
2022-10-01T10:07:35.202Z,19.69
2022-10-01T10:10:36.195Z,20.03
2022-10-01T10:13:14.055Z,20.21
2022-10-01T10:15:53.865Z,20.07
2022-10-01T10:18:28.835Z,20.47
2022-10-01T10:20:59.722Z,20.59
2022-10-01T10:23:29.563Z,20.64
2022-10-01T10:26:04.196Z,21.03
2022-10-01T10:28:46.406Z,21.17
2022-10-01T10:31:24.410Z,21.09
2022-10-01T10:33:57.646Z,20.95
2022-10-01T10:36:29.196Z,21.15
2022-10-01T10:38:58.386Z,21.74
2022-10-01T10:41:28.346Z,21.66
2022-10-01T10:44:16.472Z,22.38
2022-10-01T10:46:46.457Z,22.12
2022-10-01T10:49:25.423Z,21.90
2022-10-01T10:51:55.200Z,22.05
2022-10-01T10:54:33.042Z,22.77
2022-10-01T10:57:04.083Z,22.32
2022-10-01T10:59:33.645Z,22.85
2022-10-01T11:02:03.802Z,22.52
2022-10-01T11:04:39.246Z,22.48
2022-10-01T11:07:07.866Z,22.86
2022-10-01T11:09:54.835Z,22.89
2022-10-01T11:12:57.705Z,23.01
2022-10-01T11:15:28.932Z,23.18
2022-10-01T11:18:17.442Z,23.45
2022-10-01T11:21:07.063Z,24.16
2022-10-01T11:23:41.301Z,24.31
2022-10-01T11:26:18.361Z,24.79
2022-10-01T11:29:15.334Z,24.16
2022-10-01T11:31:50.596Z,22.91
2022-10-01T11:35:10.096Z,22.87
2022-10-01T11:38:32.283Z,23.10
2022-10-01T11:41:19.302Z,23.08
2022-10-01T11:43:53.612Z,23.62
2022-10-01T11:46:53.654Z,23.24
2022-10-01T11:49:41.992Z,23.64
2022-10-01T11:52:44.123Z,23.72
2022-10-01T11:55:39.283Z,23.73
2022-10-01T11:58:33.464Z,23.90
2022-10-01T12:01:16.555Z,24.15
2022-10-01T12:04:07.684Z,24.32
2022-10-01T12:07:03.258Z,24.49
2022-10-01T12:09:43.574Z,24.21
2022-10-01T12:12:17.643Z,23.49
2022-10-01T12:15:06.921Z,23.75
2022-10-01T12:17:47.290Z,23.05
2022-10-01T12:20:24.433Z,22.95
2022-10-01T12:22:53.513Z,21.71
2022-10-01T12:25:27.155Z,22.05
2022-10-01T12:28:28.903Z,21.95
2022-10-01T12:31:27.896Z,21.85
2022-10-01T12:33:55.714Z,21.93
2022-10-01T12:36:23.753Z,21.61
2022-10-01T12:39:01.093Z,21.55
2022-10-01T12:41:43.383Z,21.59
2022-10-01T12:44:39.300Z,21.49
2022-10-01T12:47:15.162Z,21.43
2022-10-01T12:50:04.612Z,21.54
2022-10-01T12:52:55.335Z,22.08
2022-10-01T12:55:41.688Z,21.89
2022-10-01T12:58:30.643Z,22.02
2022-10-01T13:01:22.481Z,22.47
2022-10-01T13:04:12.585Z,22.47
2022-10-01T13:07:01.471Z,22.96
2022-10-01T13:09:29.893Z,23.15
2022-10-01T13:12:15.851Z,23.20
2022-10-01T13:14:44.924Z,22.61
2022-10-01T13:17:22.921Z,22.49
2022-10-01T13:20:15.801Z,22.56
2022-10-01T13:22:47.847Z,22.70
2022-10-01T13:25:37.724Z,22.18
2022-10-01T13:28:23.896Z,22.40
2022-10-01T13:31:02.803Z,21.88
2022-10-01T13:33:38.302Z,22.00
2022-10-01T13:36:07.914Z,22.17
2022-10-01T13:38:38.984Z,22.12
2022-10-01T13:41:28.983Z,21.72
2022-10-01T13:44:09.312Z,21.30
2022-10-01T13:46:52.016Z,21.07
2022-10-01T13:49:29.270Z,21.16
2022-10-01T13:51:58.383Z,20.87
2022-10-01T13:54:30.463Z,20.75
2022-10-01T13:57:30.263Z,20.99
2022-10-01T14:00:02.401Z,20.87
2022-10-01T14:02:38.712Z,20.79
2022-10-01T14:05:30.794Z,20.62
2022-10-01T14:08:28.363Z,20.12
2022-10-01T14:11:30.177Z,20.80
2022-10-01T14:14:23.079Z,20.58
2022-10-01T14:16:51.336Z,20.35
2022-10-01T14:19:21.233Z,20.13
2022-10-01T14:22:12.756Z,20.05
2022-10-01T14:25:03.282Z,20.08
2022-10-01T14:27:46.301Z,20.12
2022-10-01T14:30:19.083Z,20.06
2022-10-01T14:33:06.021Z,19.98
2022-10-01T14:35:41.542Z,19.71
2022-10-01T14:38:17.162Z,19.36
2022-10-01T14:40:47.956Z,19.69
2022-10-01T14:43:24.580Z,19.81
2022-10-01T14:45:57.134Z,19.66
2022-10-01T14:48:33.975Z,19.72
2022-10-01T14:51:05.055Z,19.75
2022-10-01T14:53:36.546Z,19.54
2022-10-01T14:56:07.450Z,19.38
2022-10-01T14:58:43.866Z,19.14
2022-10-01T15:01:21.745Z,19.14
2022-10-01T15:03:50.749Z,19.20
2022-10-01T15:06:24.203Z,18.79
2022-10-01T15:08:54.940Z,19.04
2022-10-01T15:11:25.361Z,19.14
2022-10-01T15:14:08.545Z,19.10
2022-10-01T15:16:37.612Z,19.16
2022-10-01T15:19:14.095Z,18.98
2022-10-01T15:21:47.275Z,18.92
2022-10-01T15:24:44.583Z,18.81
2022-10-01T15:27:14.815Z,19.00
2022-10-01T15:29:43.294Z,18.52
2022-10-01T15:32:16.098Z,18.28
2022-10-01T15:34:49.192Z,18.56
2022-10-01T15:37:22.296Z,18.60
2022-10-01T15:39:52.009Z,18.29
2022-10-01T15:42:25.863Z,17.86
2022-10-01T15:45:09.372Z,18.34
2022-10-01T15:47:49.605Z,18.10
2022-10-01T15:50:21.073Z,18.45
2022-10-01T15:52:53.455Z,18.12
2022-10-01T15:55:29.225Z,18.33
2022-10-01T15:57:58.316Z,18.10
2022-10-01T16:00:29.273Z,18.13
2022-10-01T16:02:58.407Z,18.04
2022-10-01T16:05:38.333Z,18.38
2022-10-01T16:08:06.757Z,18.28
2022-10-01T16:10:40.993Z,17.86
2022-10-01T16:13:32.167Z,17.86
2022-10-01T16:16:20.902Z,18.10
2022-10-01T16:18:54.262Z,17.68
2022-10-01T16:21:22.475Z,17.70
2022-10-01T16:23:53.400Z,17.51
2022-10-01T16:26:30.422Z,17.63
2022-10-01T16:29:02.081Z,17.48
2022-10-01T16:31:30.773Z,17.50
2022-10-01T16:33:59.091Z,16.90
2022-10-01T16:36:27.728Z,17.42
2022-10-01T16:38:57.649Z,17.50
2022-10-01T16:41:27.043Z,17.19
2022-10-01T16:43:56.433Z,16.98
2022-10-01T16:46:24.674Z,17.16
2022-10-01T16:48:52.904Z,17.37
2022-10-01T16:51:22.161Z,17.32
2022-10-01T16:53:50.396Z,17.05
2022-10-01T16:56:19.859Z,16.72
2022-10-01T16:58:50.372Z,16.81
2022-10-01T17:01:18.763Z,16.80
2022-10-01T17:03:46.823Z,16.96
2022-10-01T17:06:14.665Z,16.94
2022-10-01T17:08:43.290Z,16.70
2022-10-01T17:11:12.782Z,16.82
2022-10-01T17:13:40.811Z,16.78
2022-10-01T17:16:09.245Z,16.80
2022-10-01T17:18:37.329Z,16.60
2022-10-01T17:21:05.994Z,16.48
2022-10-01T17:23:35.853Z,16.45
2022-10-01T17:26:07.951Z,16.26
2022-10-01T17:28:36.264Z,16.60
2022-10-01T17:31:07.394Z,16.42
2022-10-01T17:33:35.443Z,16.67
2022-10-01T17:36:07.223Z,16.58
2022-10-01T17:38:35.305Z,16.63
2022-10-01T17:41:03.605Z,16.63
2022-10-01T17:43:31.491Z,16.38
2022-10-01T17:46:01.497Z,16.32
2022-10-01T17:48:30.370Z,16.16
2022-10-01T17:51:03.792Z,16.11
2022-10-01T17:53:39.651Z,16.21
2022-10-01T17:56:15.135Z,16.26
2022-10-01T17:58:45.558Z,16.07
2022-10-01T18:01:20.127Z,16.34
2022-10-01T18:03:54.655Z,15.92
2022-10-01T18:06:23.734Z,15.82
2022-10-01T18:08:55.666Z,15.99
2022-10-01T18:11:25.997Z,16.12
2022-10-01T18:13:54.205Z,15.90
2022-10-01T18:16:22.670Z,15.85
2022-10-01T18:21:51.310Z,16.04
2022-10-01T18:24:19.152Z,15.77
2022-10-01T18:26:47.184Z,15.72
2022-10-01T18:29:20.797Z,15.66
2022-10-01T18:31:56.341Z,15.99
2022-10-01T18:34:49.906Z,15.70
2022-10-01T18:37:41.633Z,15.54
2022-10-01T18:40:17.083Z,15.82
2022-10-01T18:42:46.563Z,15.87
2022-10-01T18:45:56.972Z,15.82
2022-10-01T18:49:02.839Z,15.95
2022-10-01T18:51:51.341Z,15.86
2022-10-01T18:54:58.988Z,15.86
2022-10-01T18:57:34.492Z,15.87
2022-10-01T19:00:12.515Z,15.65
2022-10-01T19:03:25.392Z,15.78
2022-10-01T19:06:04.591Z,15.57
2022-10-01T19:08:54.706Z,15.30
2022-10-01T19:11:44.604Z,15.53
2022-10-01T19:14:57.503Z,15.38
2022-10-01T19:17:31.901Z,15.45
2022-10-01T19:20:33.499Z,15.74
2022-10-01T19:23:07.412Z,15.66
2022-10-01T19:25:46.372Z,15.82
2022-10-01T19:28:35.661Z,15.86
2022-10-01T19:31:06.791Z,15.77
2022-10-01T19:33:39.075Z,15.72
2022-10-01T19:36:17.062Z,15.88
2022-10-01T19:38:46.753Z,15.91
2022-10-01T19:41:21.203Z,15.71
2022-10-01T19:43:58.015Z,15.94
2022-10-01T19:46:47.515Z,15.91
2022-10-01T19:49:22.206Z,15.94
2022-10-01T19:52:01.596Z,15.73
2022-10-01T19:54:35.144Z,15.87
2022-10-01T19:57:14.372Z,15.71
2022-10-01T19:59:42.276Z,15.84
2022-10-01T20:02:16.513Z,16.07
2022-10-01T20:05:14.142Z,16.08
2022-10-01T20:08:05.044Z,16.06
2022-10-01T20:10:42.241Z,15.74
2022-10-01T20:13:15.934Z,15.72
2022-10-01T20:15:59.156Z,15.91
2022-10-01T20:19:05.325Z,16.06
2022-10-01T20:21:44.954Z,16.05
2022-10-01T20:24:29.057Z,16.06
2022-10-01T20:27:09.441Z,15.97
2022-10-01T20:29:54.755Z,16.05
2022-10-01T20:32:51.027Z,16.02
2022-10-01T20:35:30.374Z,15.58
2022-10-01T20:38:04.450Z,16.10
2022-10-01T20:40:49.861Z,15.71
2022-10-01T20:43:33.612Z,15.78
2022-10-01T20:46:07.116Z,15.85
2022-10-01T20:48:43.064Z,15.89
2022-10-01T20:51:16.502Z,16.04
2022-10-01T20:53:52.332Z,15.87
2022-10-01T20:56:39.962Z,16.11
2022-10-01T20:59:21.114Z,15.73
2022-10-01T21:02:26.672Z,15.84
2022-10-01T21:05:24.086Z,15.97
2022-10-01T21:07:59.173Z,16.08
2022-10-01T21:10:42.657Z,15.72
2022-10-01T21:13:31.571Z,15.66
2022-10-01T21:16:37.882Z,15.82
2022-10-01T21:19:40.513Z,15.92
2022-10-01T21:22:31.312Z,15.63
2022-10-01T21:25:05.210Z,15.80
2022-10-01T21:28:01.690Z,15.81
2022-10-01T21:30:49.184Z,15.42
2022-10-01T21:33:33.147Z,15.34
2022-10-01T21:36:03.425Z,15.66
2022-10-01T21:38:45.743Z,15.50
2022-10-01T21:41:23.302Z,15.31
2022-10-01T21:44:33.271Z,15.21
2022-10-01T21:47:22.876Z,15.42
2022-10-01T21:50:16.011Z,15.35
2022-10-01T21:53:42.332Z,15.41
2022-10-01T21:56:38.705Z,15.22
2022-10-01T21:59:40.504Z,15.17
2022-10-01T22:02:35.139Z,15.12
2022-10-01T22:05:29.597Z,15.04
2022-10-01T22:08:18.153Z,15.30
2022-10-01T22:10:50.362Z,15.18
2022-10-01T22:13:24.748Z,14.80
2022-10-01T22:15:56.843Z,14.94
2022-10-01T22:18:49.339Z,15.15
2022-10-01T22:21:25.503Z,14.94
2022-10-01T22:23:59.752Z,15.00
2022-10-01T22:26:30.381Z,14.77
2022-10-01T22:28:59.161Z,14.93
2022-10-01T22:31:31.198Z,14.83
2022-10-01T22:34:07.925Z,15.01
2022-10-01T22:36:53.289Z,14.64
2022-10-01T22:39:26.420Z,14.75
2022-10-01T22:42:14.432Z,14.88
2022-10-01T22:44:42.601Z,14.90
2022-10-01T22:47:22.770Z,14.75
2022-10-01T22:50:13.190Z,14.87
2022-10-01T22:52:49.289Z,14.84
2022-10-01T22:55:34.402Z,14.84
2022-10-01T22:58:22.352Z,14.64
2022-10-01T23:00:50.082Z,14.45
2022-10-01T23:03:18.168Z,14.59
2022-10-01T23:06:04.024Z,15.03
2022-10-01T23:08:54.041Z,14.69
2022-10-01T23:11:57.719Z,14.42
2022-10-01T23:14:25.901Z,14.56
2022-10-01T23:17:05.922Z,14.64
2022-10-01T23:19:49.303Z,14.52
2022-10-01T23:23:01.404Z,14.49
2022-10-01T23:26:00.215Z,14.13
2022-10-01T23:28:30.948Z,14.43
2022-10-01T23:31:10.916Z,14.75
2022-10-01T23:34:04.891Z,14.94
2022-10-01T23:36:43.262Z,14.78
2022-10-01T23:39:23.123Z,14.66
2022-10-01T23:41:58.874Z,14.94
2022-10-01T23:44:40.602Z,14.93
2022-10-01T23:47:14.312Z,15.00
2022-10-01T23:49:47.901Z,14.92
2022-10-01T23:52:21.943Z,14.72
2022-10-01T23:54:56.842Z,14.60
2022-10-01T23:57:37.693Z,14.89
